Time;durP1;ratioP1;P1;durP2;ratioP2;P2;SDS_P1;SDS_P2;PMS_P1;PMS_P2;Temp;Humidity;BMP_temperature;BMP_pressure;BME280_temperature;BME280_humidity;BME280_pressure;Samples;Min_cycle;Max_cycle;Signal;HPM_P1;HPM_P2
2022/06/30 00:00:59;;;;;;;6.05;1.48;;;23.90;73.50;;;;;;5016559;28;20034;-71
2022/06/30 00:03:24;;;;;;;5.70;1.50;;;23.80;73.80;;;;;;5016046;28;20368;-71
2022/06/30 00:05:50;;;;;;;4.30;1.83;;;23.80;73.70;;;;;;5016341;28;20408;-71
2022/06/30 00:08:16;;;;;;;5.28;1.60;;;23.80;74.00;;;;;;5016214;28;20026;-71
2022/06/30 00:10:41;;;;;;;6.35;1.70;;;23.70;74.40;;;;;;5015739;28;20026;-71
2022/06/30 00:13:07;;;;;;;6.20;1.67;;;23.70;74.70;;;;;;5015930;28;20034;-71
2022/06/30 00:15:35;;;;;;;5.78;1.98;;;23.70;75.00;;;;;;4998289;28;20053;-71
2022/06/30 00:18:01;;;;;;;5.55;1.60;;;23.60;75.20;;;;;;5015847;28;20467;-71
2022/06/30 00:20:26;;;;;;;4.90;1.60;;;23.60;75.80;;;;;;5015739;28;20025;-71
2022/06/30 00:22:52;;;;;;;7.32;1.77;;;23.50;76.70;;;;;;5015736;28;20042;-71
2022/06/30 00:25:18;;;;;;;7.32;1.70;;;23.50;76.10;;;;;;5016050;28;20531;-70
2022/06/30 00:27:44;;;;;;;5.90;1.50;;;23.50;76.30;;;;;;5015382;28;20467;-71
2022/06/30 00:30:10;;;;;;;4.75;1.48;;;23.50;76.40;;;;;;5015959;28;20100;-70
2022/06/30 00:32:36;;;;;;;5.95;1.83;;;23.50;76.60;;;;;;5015683;28;20113;-70
2022/06/30 00:35:02;;;;;;;6.07;1.67;;;23.50;76.40;;;;;;5015858;28;20101;-70
2022/06/30 00:37:27;;;;;;;7.72;2.25;;;23.50;76.80;;;;;;5015311;28;20530;-70
2022/06/30 00:39:53;;;;;;;4.85;1.77;;;23.50;76.90;;;;;;5014165;28;20025;-70
2022/06/30 00:42:19;;;;;;;8.32;2.00;;;23.50;77.10;;;;;;5015552;28;20507;-70
2022/06/30 00:44:45;;;;;;;7.68;2.35;;;23.60;77.20;;;;;;5015283;28;20471;-70
2022/06/30 00:47:10;;;;;;;6.68;2.03;;;23.60;77.20;;;;;;5015575;28;20025;-71
2022/06/30 00:49:37;;;;;;;3.88;1.67;;;23.50;77.60;;;;;;5015258;28;20471;-71
2022/06/30 00:52:06;;;;;;;3.15;1.73;;;23.40;77.90;;;;;;5015227;28;20025;-71
2022/06/30 00:54:33;;;;;;;4.55;2.35;;;23.40;78.20;;;;;;5015289;28;20018;-71
2022/06/30 00:57:00;;;;;;;5.53;2.40;;;23.40;78.20;;;;;;5015524;28;20033;-71
2022/06/30 00:59:27;;;;;;;4.55;2.63;;;23.40;78.40;;;;;;5015144;28;20026;-71
2022/06/30 01:01:53;;;;;;;6.07;2.80;;;23.30;79.10;;;;;;5015162;28;20030;-71
2022/06/30 01:04:19;;;;;;;5.25;3.15;;;23.30;79.30;;;;;;5014511;28;20036;-71
2022/06/30 01:06:45;;;;;;;4.93;3.15;;;23.20;79.60;;;;;;5014848;28;20046;-71
2022/06/30 01:12:41;;;;;;;4.50;3.13;;;23.20;79.80;;;;;;5015036;28;20022;-70
2022/06/30 01:14:42;;;;;;;5.28;2.88;;;23.10;80.00;;;;;;5014890;28;20241;-71
2022/06/30 01:17:08;;;;;;;4.47;2.50;;;23.20;79.60;;;;;;5015138;28;20026;-71
2022/06/30 01:19:33;;;;;;;5.30;2.83;;;23.10;79.90;;;;;;5014613;28;20068;-71
2022/06/30 01:22:03;;;;;;;6.50;2.60;;;23.10;80.00;;;;;;5014674;28;20149;-71
2022/06/30 01:24:29;;;;;;;3.42;2.00;;;23.20;79.30;;;;;;5014576;28;20041;-71
2022/06/30 01:26:58;;;;;;;4.72;2.00;;;23.30;79.00;;;;;;5014994;28;20416;-71
2022/06/30 01:29:23;;;;;;;4.00;1.50;;;23.20;78.90;;;;;;5014812;28;20022;-70
2022/06/30 01:31:50;;;;;;;4.70;1.63;;;23.20;78.90;;;;;;5014617;28;20109;-71
2022/06/30 01:34:15;;;;;;;5.50;1.88;;;23.20;79.00;;;;;;5014544;28;20599;-71
2022/06/30 01:36:42;;;;;;;5.47;1.80;;;23.20;78.90;;;;;;5014324;28;20096;-71
2022/06/30 01:39:08;;;;;;;6.55;1.77;;;23.10;79.30;;;;;;5014480;28;20018;-70
2022/06/30 01:41:34;;;;;;;3.65;1.50;;;23.00;79.70;;;;;;5014439;28;20053;-71
2022/06/30 01:43:59;;;;;;;5.63;1.73;;;22.90;80.00;;;;;;5014351;28;20069;-71
2022/06/30 01:46:25;;;;;;;4.20;1.33;;;22.80;80.30;;;;;;5014314;28;20045;-71
2022/06/30 01:48:50;;;;;;;8.38;2.10;;;22.80;80.30;;;;;;5014220;28;20032;-71
2022/06/30 01:51:16;;;;;;;8.27;1.65;;;22.90;80.00;;;;;;5014029;28;20418;-71
2022/06/30 01:53:42;;;;;;;8.45;1.85;;;22.80;80.30;;;;;;5014274;28;20227;-71
2022/06/30 01:56:07;;;;;;;9.75;1.83;;;22.70;80.60;;;;;;5014217;28;20025;-71
2022/06/30 01:58:33;;;;;;;7.22;1.73;;;22.60;80.70;;;;;;5014313;28;20528;-70
2022/06/30 02:00:58;;;;;;;8.57;2.05;;;22.60;80.70;;;;;;5014069;28;20026;-71
2022/06/30 02:03:24;;;;;;;5.60;1.95;;;22.60;80.70;;;;;;5014119;28;20026;-71
2022/06/30 02:05:50;;;;;;;5.38;1.92;;;22.70;80.80;;;;;;5013559;28;20476;-70
2022/06/30 02:08:15;;;;;;;6.78;2.17;;;22.60;80.70;;;;;;5014066;28;20014;-70
2022/06/30 02:10:41;;;;;;;8.32;1.75;;;22.60;80.70;;;;;;5013915;28;20034;-70
2022/06/30 02:13:06;;;;;;;7.05;1.98;;;22.50;81.00;;;;;;5013995;28;20469;-70
2022/06/30 02:15:36;;;;;;;12.60;2.35;;;22.50;81.20;;;;;;5013023;28;20038;-70
2022/06/30 02:18:04;;;;;;;5.00;2.13;;;22.50;81.30;;;;;;5013799;28;20025;-70
2022/06/30 02:20:30;;;;;;;7.85;2.38;;;22.40;81.50;;;;;;5013297;28;20034;-70
2022/06/30 02:22:58;;;;;;;8.00;2.45;;;22.40;81.80;;;;;;5013961;28;20014;-71
2022/06/30 02:25:25;;;;;;;8.40;2.55;;;22.30;82.00;;;;;;5013573;28;20468;-71
2022/06/30 02:27:51;;;;;;;8.18;2.35;;;22.30;82.00;;;;;;5013634;28;20047;-70
2022/06/30 02:30:17;;;;;;;7.25;2.35;;;22.30;82.20;;;;;;5013556;28;20026;-70
2022/06/30 02:32:43;;;;;;;8.18;2.30;;;22.30;82.20;;;;;;5013679;28;20054;-71
2022/06/30 02:35:10;;;;;;;10.70;2.63;;;22.50;81.50;;;;;;5013237;28;20072;-70
2022/06/30 02:37:36;;;;;;;11.73;2.75;;;22.60;81.10;;;;;;4996031;28;20022;-71
2022/06/30 02:40:02;;;;;;;10.10;2.50;;;22.70;80.30;;;;;;5013394;28;20022;-70
2022/06/30 02:42:27;;;;;;;7.80;1.92;;;22.70;80.20;;;;;;5013355;28;20044;-70
2022/06/30 02:44:53;;;;;;;6.20;2.08;;;22.60;80.30;;;;;;5013134;28;20021;-71
2022/06/30 02:47:19;;;;;;;7.82;2.38;;;22.60;80.10;;;;;;5013504;28;20033;-70
2022/06/30 02:49:44;;;;;;;8.52;2.40;;;22.60;79.90;;;;;;5013126;28;20022;-70
2022/06/30 02:52:10;;;;;;;8.88;1.95;;;22.60;80.10;;;;;;5013319;28;20430;-70
2022/06/30 02:54:35;;;;;;;5.68;1.80;;;22.60;79.80;;;;;;5013222;28;20426;-70
2022/06/30 02:57:01;;;;;;;7.07;2.33;;;22.60;79.70;;;;;;5013327;28;20582;-70
2022/06/30 02:59:27;;;;;;;5.18;1.85;;;22.50;80.30;;;;;;5010904;28;20105;-70
2022/06/30 03:01:53;;;;;;;3.65;1.73;;;22.30;80.60;;;;;;5012463;28;20105;-70
2022/06/30 03:04:18;;;;;;;6.97;2.15;;;22.30;80.50;;;;;;5010240;28;20026;-70
2022/06/30 03:06:44;;;;;;;5.82;2.03;;;22.20;80.70;;;;;;4994254;28;20030;-70
2022/06/30 03:09:10;;;;;;;7.22;2.03;;;22.20;80.60;;;;;;5013108;28;20060;-70
2022/06/30 03:11:35;;;;;;;6.40;2.33;;;22.10;80.80;;;;;;5013130;28;20030;-70
2022/06/30 03:14:01;;;;;;;7.80;2.30;;;22.10;81.10;;;;;;5013269;28;20030;-70
2022/06/30 03:16:26;;;;;;;5.68;2.22;;;22.20;80.90;;;;;;5013247;28;20042;-70
2022/06/30 03:18:53;;;;;;;8.95;2.65;;;22.10;80.70;;;;;;5012972;28;20529;-70
2022/06/30 03:21:20;;;;;;;11.52;2.97;;;22.00;81.10;;;;;;5013163;28;20022;-70
2022/06/30 03:23:46;;;;;;;6.32;2.50;;;22.00;81.50;;;;;;5013204;28;20042;-70
2022/06/30 03:26:12;;;;;;;5.13;2.50;;;21.90;81.60;;;;;;5014011;28;20349;-70
2022/06/30 03:28:38;;;;;;;8.52;2.92;;;22.00;81.70;;;;;;5016979;28;20026;-70
2022/06/30 03:31:04;;;;;;;10.57;3.20;;;21.90;81.50;;;;;;5016780;28;20558;-70
2022/06/30 03:33:29;;;;;;;8.00;2.88;;;21.90;81.70;;;;;;5016834;28;20022;-70
2022/06/30 03:35:55;;;;;;;6.38;2.85;;;21.80;81.80;;;;;;4999074;28;20100;-70
2022/06/30 03:38:22;;;;;;;10.73;3.72;;;21.90;81.70;;;;;;5016877;28;20467;-70
2022/06/30 03:40:47;;;;;;;5.82;2.97;;;21.80;81.70;;;;;;5016622;28;20045;-70
2022/06/30 03:43:13;;;;;;;10.15;3.65;;;21.80;81.80;;;;;;5016336;28;20038;-70
2022/06/30 03:45:39;;;;;;;6.63;2.85;;;21.80;82.00;;;;;;5016434;28;20136;-70
2022/06/30 03:48:06;;;;;;;8.15;2.65;;;21.90;81.90;;;;;;5016318;28;20073;-70
2022/06/30 03:50:33;;;;;;;7.00;3.15;;;21.90;81.80;;;;;;5016929;28;20022;-70
2022/06/30 03:53:00;;;;;;;5.95;3.10;;;21.80;82.00;;;;;;5016467;28;20463;-70
2022/06/30 03:55:26;;;;;;;5.90;2.63;;;21.80;82.70;;;;;;5016434;28;20010;-72
2022/06/30 03:57:51;;;;;;;9.07;2.88;;;21.80;81.80;;;;;;5016448;28;20026;-71
2022/06/30 04:00:17;;;;;;;10.15;3.08;;;21.80;81.90;;;;;;5016315;28;20399;-71
2022/06/30 04:02:43;;;;;;;7.03;3.47;;;21.80;81.80;;;;;;5016406;28;20033;-71
2022/06/30 04:05:09;;;;;;;9.10;3.13;;;21.80;82.10;;;;;;5016389;28;20122;-70
2022/06/30 04:07:42;;;;;;;7.18;2.95;;;21.80;82.20;;;;;;5016047;28;20440;-70
2022/06/30 04:10:13;;;;;;;6.13;3.30;;;21.70;82.30;;;;;;5016219;28;20037;-70
2022/06/30 04:12:39;;;;;;;11.07;3.90;;;21.70;82.70;;;;;;5016090;28;20026;-70
2022/06/30 04:15:05;;;;;;;9.43;3.88;;;21.70;82.80;;;;;;5015920;28;20467;-70
2022/06/30 04:17:34;;;;;;;7.72;2.97;;;21.60;83.00;;;;;;5016081;28;20030;-70
2022/06/30 04:20:04;;;;;;;7.80;2.97;;;21.70;83.00;;;;;;5015821;28;20026;-70
2022/06/30 04:22:31;;;;;;;11.05;3.40;;;21.70;82.70;;;;;;5015989;28;20470;-70
2022/06/30 04:24:56;;;;;;;7.32;2.88;;;21.70;82.60;;;;;;5015967;28;20034;-70
2022/06/30 04:27:22;;;;;;;9.68;2.70;;;21.70;82.80;;;;;;5015868;28;20104;-70
2022/06/30 04:29:48;;;;;;;10.15;3.20;;;21.70;82.50;;;;;;5015621;28;20044;-70
2022/06/30 04:34:57;;;;;;;7.88;2.45;;;21.60;83.00;;;;;;5015827;28;20041;-72
2022/06/30 04:37:23;;;;;;;6.30;2.42;;;21.50;83.10;;;;;;5015060;28;20109;-72
2022/06/30 04:39:48;;;;;;;8.10;2.50;;;21.60;83.00;;;;;;5015136;28;20488;-71
2022/06/30 04:42:14;;;;;;;7.30;2.38;;;21.50;83.10;;;;;;5015470;28;20088;-71
2022/06/30 04:44:40;;;;;;;6.25;2.40;;;21.60;83.30;;;;;;5015201;28;20018;-71
2022/06/30 04:47:05;;;;;;;6.65;2.35;;;21.60;83.30;;;;;;5015353;28;20038;-71
2022/06/30 04:49:31;;;;;;;7.63;2.10;;;21.50;83.40;;;;;;5015452;28;20530;-72
2022/06/30 04:51:59;;;;;;;8.77;2.15;;;21.60;83.50;;;;;;5015389;28;20021;-72
2022/06/30 04:54:24;;;;;;;10.73;2.42;;;21.60;83.30;;;;;;5015295;28;20045;-71
2022/06/30 04:56:50;;;;;;;17.33;3.55;;;21.60;83.30;;;;;;5015385;28;20381;-72
2022/06/30 04:59:16;;;;;;;6.05;2.38;;;21.50;80.30;;;;;;5014994;28;20387;-70
2022/06/30 05:01:41;;;;;;;5.93;2.20;;;21.50;79.40;;;;;;5013547;28;20014;-70
2022/06/30 05:04:07;;;;;;;8.18;2.58;;;21.40;79.60;;;;;;5014780;28;20037;-71
2022/06/30 05:06:33;;;;;;;7.43;2.42;;;21.20;80.00;;;;;;5013811;28;20038;-71
2022/06/30 05:08:58;;;;;;;6.82;2.60;;;21.20;80.40;;;;;;5014613;28;20538;-70
2022/06/30 05:11:24;;;;;;;7.15;2.85;;;21.20;80.60;;;;;;5015109;28;20105;-70
2022/06/30 05:13:49;;;;;;;6.05;2.40;;;21.30;80.80;;;;;;5014520;28;20073;-70
2022/06/30 05:16:15;;;;;;;5.32;2.40;;;21.30;80.80;;;;;;5014890;28;20394;-70
2022/06/30 05:18:41;;;;;;;7.93;2.80;;;21.30;80.70;;;;;;5014880;28;20360;-73
2022/06/30 05:21:06;;;;;;;6.95;2.10;;;21.30;80.60;;;;;;5014867;28;20041;-73
2022/06/30 05:23:32;;;;;;;4.93;2.13;;;21.50;79.60;;;;;;5014625;28;20184;-71
2022/06/30 05:28:41;;;;;;;6.82;2.33;;;21.50;80.20;;;;;;5014560;28;20153;-71
2022/06/30 05:31:07;;;;;;;5.72;2.20;;;21.60;79.50;;;;;;5014724;28;20110;-71
2022/06/30 05:33:32;;;;;;;8.38;1.98;;;21.70;79.40;;;;;;5013202;28;20018;-71
2022/06/30 05:35:59;;;;;;;6.72;2.10;;;21.90;78.90;;;;;;5014485;28;20026;-72
2022/06/30 05:38:24;;;;;;;5.68;2.60;;;21.80;78.90;;;;;;5014840;28;20026;-69
2022/06/30 05:40:50;;;;;;;7.35;2.65;;;21.90;80.10;;;;;;4996433;28;20033;-70
2022/06/30 05:43:17;;;;;;;8.57;2.95;;;22.20;79.10;;;;;;5014246;28;20118;-70
2022/06/30 05:45:45;;;;;;;10.73;3.13;;;22.50;78.30;;;;;;5014460;28;20038;-70
2022/06/30 05:48:11;;;;;;;9.43;3.22;;;22.90;78.40;;;;;;5014457;28;20045;-70
2022/06/30 05:50:36;;;;;;;7.10;2.72;;;23.10;77.70;;;;;;5013299;28;20066;-72
2022/06/30 05:53:02;;;;;;;7.88;2.28;;;23.30;77.30;;;;;;5013038;28;20026;-70
2022/06/30 05:55:27;;;;;;;7.85;2.25;;;23.40;77.20;;;;;;4994159;28;20446;-73
2022/06/30 05:57:56;;;;;;;6.53;2.15;;;23.50;77.20;;;;;;5013075;28;20121;-71
2022/06/30 06:00:24;;;;;;;6.32;1.58;;;23.40;76.40;;;;;;5014167;28;20033;-70
2022/06/30 06:02:50;;;;;;;10.00;2.05;;;23.40;76.50;;;;;;5014210;28;20030;-70
2022/06/30 06:05:16;;;;;;;7.00;2.42;;;23.50;76.20;;;;;;5014068;28;20033;-72
2022/06/30 06:07:42;;;;;;;9.18;3.08;;;23.50;76.50;;;;;;5012166;28;20527;-70
2022/06/30 06:10:09;;;;;;;8.02;2.50;;;23.60;76.90;;;;;;5013429;28;20387;-70
2022/06/30 06:12:34;;;;;;;8.10;2.30;;;23.60;76.00;;;;;;5012975;28;20025;-69
2022/06/30 06:15:03;;;;;;;5.05;1.67;;;23.60;76.00;;;;;;5013220;28;20034;-70
2022/06/30 06:17:30;;;;;;;17.02;3.00;;;23.60;76.10;;;;;;5011983;28;20037;-71
2022/06/30 06:19:57;;;;;;;9.05;2.60;;;23.60;78.20;;;;;;4995438;28;20018;-72
2022/06/30 06:22:22;;;;;;;5.82;2.05;;;23.50;78.50;;;;;;5013187;28;20041;-71
2022/06/30 06:24:48;;;;;;;6.68;2.10;;;23.50;78.00;;;;;;5012815;28;20109;-71
2022/06/30 06:27:14;;;;;;;5.03;1.80;;;23.50;78.30;;;;;;5013770;28;20045;-71
2022/06/30 06:29:39;;;;;;;6.38;2.13;;;23.40;78.70;;;;;;5012424;28;20022;-71
2022/06/30 06:32:05;;;;;;;9.63;2.33;;;23.50;78.60;;;;;;5009602;28;20121;-71
2022/06/30 06:34:31;;;;;;;7.80;2.35;;;23.50;78.50;;;;;;5015231;28;20430;-71
2022/06/30 06:36:56;;;;;;;6.32;2.08;;;23.60;78.30;;;;;;5029171;28;20087;-71
2022/06/30 06:39:22;;;;;;;10.07;2.58;;;23.60;78.10;;;;;;5022575;28;20100;-73
2022/06/30 06:41:47;;;;;;;9.32;2.30;;;23.60;77.90;;;;;;5003971;28;20182;-71
2022/06/30 06:44:13;;;;;;;5.55;2.05;;;23.70;77.80;;;;;;5005365;28;20049;-71
2022/06/30 06:46:39;;;;;;;5.82;2.03;;;23.70;77.80;;;;;;5011854;28;20036;-71
2022/06/30 06:49:06;;;;;;;7.63;1.95;;;23.80;77.80;;;;;;5015250;28;20035;-71
2022/06/30 06:51:33;;;;;;;7.68;2.30;;;23.80;77.40;;;;;;4978884;28;20392;-71
2022/06/30 06:53:58;;;;;;;7.10;1.85;;;23.80;77.40;;;;;;5012137;28;20041;-71
2022/06/30 06:56:24;;;;;;;7.90;2.30;;;23.90;77.60;;;;;;5012867;28;20030;-71
2022/06/30 06:58:50;;;;;;;6.90;2.45;;;24.00;78.20;;;;;;5002842;28;20041;-72
2022/06/30 07:01:16;;;;;;;15.00;2.75;;;24.00;79.20;;;;;;5006501;28;20018;-73
2022/06/30 07:03:42;;;;;;;9.50;2.83;;;24.00;79.10;;;;;;4992124;28;20037;-74
2022/06/30 07:06:08;;;;;;;6.22;2.47;;;24.00;77.20;;;;;;5008288;28;20511;-73
2022/06/30 07:08:34;;;;;;;22.88;4.53;;;24.10;76.40;;;;;;5007172;28;20706;-75
2022/06/30 07:11:01;;;;;;;18.65;3.75;;;24.00;76.00;;;;;;5006070;28;20026;-79
2022/06/30 07:13:27;;;;;;;11.35;2.90;;;24.10;75.80;;;;;;5006624;28;20040;-74
2022/06/30 07:15:53;;;;;;;13.55;3.00;;;24.20;76.10;;;;;;5007436;28;20025;-81
2022/06/30 07:18:19;;;;;;;9.45;2.50;;;24.20;81.20;;;;;;5005686;28;20395;-72
2022/06/30 07:20:45;;;;;;;6.05;2.28;;;24.30;79.90;;;;;;5008625;28;20097;-75
2022/06/30 07:23:10;;;;;;;19.45;3.08;;;24.30;77.30;;;;;;5006313;28;20104;-72
2022/06/30 07:25:36;;;;;;;13.70;3.00;;;24.30;75.00;;;;;;5008141;28;20499;-77
2022/06/30 07:28:02;;;;;;;6.35;1.73;;;24.20;74.40;;;;;;5010957;28;20474;-75
2022/06/30 07:30:28;;;;;;;6.20;1.65;;;24.30;73.70;;;;;;5006727;28;20080;-77
2022/06/30 07:32:54;;;;;;;7.85;1.92;;;24.40;74.10;;;;;;5010367;28;20030;-78
2022/06/30 07:35:20;;;;;;;7.32;1.58;;;24.50;73.60;;;;;;5010770;28;20029;-77
2022/06/30 07:37:45;;;;;;;6.05;1.92;;;24.60;73.40;;;;;;5010081;28;20021;-75
2022/06/30 07:40:12;;;;;;;5.55;1.40;;;24.50;73.60;;;;;;5009959;28;20426;-78
2022/06/30 07:42:38;;;;;;;5.05;1.83;;;24.40;73.70;;;;;;5010659;28;20053;-79
2022/06/30 07:45:05;;;;;;;6.57;1.65;;;24.40;74.70;;;;;;5006569;28;20479;-77
2022/06/30 07:47:30;;;;;;;9.43;1.73;;;24.40;74.30;;;;;;5010481;28;20483;-77
2022/06/30 07:49:56;;;;;;;4.85;1.88;;;24.50;74.50;;;;;;4993026;28;20105;-79
2022/06/30 07:52:22;;;;;;;5.55;1.33;;;24.50;73.70;;;;;;5011126;28;20471;-77
2022/06/30 07:54:47;;;;;;;5.85;1.58;;;24.50;73.80;;;;;;5011094;28;20030;-78
2022/06/30 07:57:13;;;;;;;5.60;1.35;;;24.60;73.80;;;;;;5011106;28;20498;-78
2022/06/30 07:59:39;;;;;;;5.47;1.40;;;24.60;73.60;;;;;;5011522;28;20025;-77
2022/06/30 08:02:06;;;;;;;6.47;1.58;;;24.70;73.30;;;;;;5009883;28;20506;-77
2022/06/30 08:04:33;;;;;;;5.80;1.45;;;24.60;73.90;;;;;;5012008;28;20073;-78
2022/06/30 08:07:01;;;;;;;4.57;1.45;;;24.60;73.30;;;;;;5010902;28;20077;-79
2022/06/30 08:09:27;;;;;;;4.05;1.23;;;24.60;73.50;;;;;;5010012;28;20060;-78
2022/06/30 08:11:54;;;;;;;3.33;1.15;;;24.60;73.30;;;;;;5005750;28;20562;-77
2022/06/30 08:14:21;;;;;;;3.25;1.20;;;24.60;73.30;;;;;;5013094;28;20076;-78
2022/06/30 08:16:46;;;;;;;4.20;1.05;;;24.70;73.80;;;;;;5014603;28;20026;-76
2022/06/30 08:19:12;;;;;;;5.03;1.17;;;24.80;73.10;;;;;;5012275;28;20029;-75
2022/06/30 08:21:38;;;;;;;6.35;1.50;;;24.80;73.00;;;;;;5009564;28;20029;-77
2022/06/30 08:24:03;;;;;;;4.75;1.45;;;24.80;73.00;;;;;;5013848;28;20025;-76
2022/06/30 08:26:30;;;;;;;16.85;2.22;;;24.90;73.00;;;;;;5013150;28;20045;-73
2022/06/30 08:28:56;;;;;;;13.98;1.45;;;24.90;72.80;;;;;;5014813;28;20036;-74
2022/06/30 08:31:22;;;;;;;9.15;1.75;;;24.80;72.90;;;;;;5013325;28;20026;-74
2022/06/30 08:33:50;;;;;;;5.38;1.25;;;24.90;75.00;;;;;;5006434;28;20487;-73
2022/06/30 08:36:16;;;;;;;4.45;1.50;;;24.90;73.30;;;;;;5013738;28;20030;-72
2022/06/30 08:38:42;;;;;;;7.03;1.50;;;24.90;72.60;;;;;;5014777;28;20022;-74
2022/06/30 08:43:56;;;;;;;4.93;1.08;;;24.80;72.20;;;;;;4988460;28;20431;-74
2022/06/30 08:46:25;;;;;;;4.78;1.35;;;24.80;72.10;;;;;;5014302;28;20447;-74
2022/06/30 08:48:50;;;;;;;6.88;1.23;;;24.90;72.00;;;;;;5014702;28;20101;-74
2022/06/30 08:51:18;;;;;;;6.57;1.50;;;24.90;72.10;;;;;;4980816;28;20049;-73
2022/06/30 08:53:55;;;;;;;2.80;1.05;;;24.90;72.10;;;;;;5014494;28;20029;-73
2022/06/30 08:56:22;;;;;;;4.32;0.93;;;25.00;72.10;;;;;;5012466;28;20036;-73
2022/06/30 08:58:50;;;;;;;5.85;1.55;;;25.00;72.00;;;;;;5014569;28;20018;-74
2022/06/30 09:01:16;;;;;;;6.35;1.40;;;25.00;71.80;;;;;;5014472;28;20026;-73
2022/06/30 09:03:42;;;;;;;3.42;1.13;;;25.00;71.80;;;;;;5014375;28;20014;-74
2022/06/30 09:06:09;;;;;;;6.47;1.48;;;25.00;71.80;;;;;;5013160;28;20053;-74
2022/06/30 09:08:34;;;;;;;3.50;1.42;;;25.10;71.70;;;;;;5013932;28;20029;-74
2022/06/30 09:11:00;;;;;;;4.55;1.23;;;25.10;71.50;;;;;;5014566;28;20426;-74
2022/06/30 09:13:50;;;;;;;3.15;1.30;;;25.10;71.40;;;;;;5028826;28;20467;-73
2022/06/30 09:16:19;;;;;;;5.30;1.50;;;25.10;71.30;;;;;;5034633;28;20026;-72
2022/06/30 09:18:45;;;;;;;4.07;1.42;;;25.10;71.30;;;;;;5034748;28;20026;-73
2022/06/30 09:21:15;;;;;;;7.47;1.45;;;25.00;71.20;;;;;;5034383;28;20040;-74
2022/06/30 09:23:44;;;;;;;11.85;1.77;;;25.10;71.40;;;;;;5034119;28;20032;-74
2022/06/30 09:26:19;;;;;;;11.65;2.05;;;25.10;71.30;;;;;;5014504;28;20034;-74
2022/06/30 09:28:47;;;;;;;8.20;1.55;;;25.10;71.00;;;;;;5014769;28;20097;-74
2022/06/30 09:31:31;;;;;;;9.10;1.73;;;25.10;71.10;;;;;;5014261;28;20041;-74
2022/06/30 09:34:16;;;;;;;4.30;1.77;;;25.10;71.20;;;;;;5014079;28;20110;-73
2022/06/30 09:36:42;;;;;;;10.05;1.30;;;25.10;71.20;;;;;;5012330;28;20096;-74
2022/06/30 09:39:10;;;;;;;8.77;1.63;;;25.10;71.40;;;;;;5014287;28;20472;-74
2022/06/30 09:41:41;;;;;;;6.63;1.40;;;25.10;71.50;;;;;;5013706;28;20085;-74
2022/06/30 09:44:17;;;;;;;5.03;1.30;;;25.10;71.50;;;;;;5012582;28;20042;-73
2022/06/30 09:46:57;;;;;;;7.07;1.35;;;25.20;71.60;;;;;;5021252;28;20552;-73
2022/06/30 09:49:34;;;;;;;5.90;1.25;;;25.20;71.50;;;;;;5013437;28;20026;-74
2022/06/30 09:52:05;;;;;;;4.13;1.25;;;25.20;71.50;;;;;;5013826;28;20498;-74
2022/06/30 09:54:34;;;;;;;13.10;1.50;;;25.20;71.30;;;;;;5013723;28;20484;-72
2022/06/30 09:57:06;;;;;;;5.57;0.82;;;25.20;69.00;;;;;;5013705;28;20028;-75
2022/06/30 09:59:35;;;;;;;3.08;0.70;;;25.30;68.80;;;;;;5014058;28;20033;-73
2022/06/30 10:02:06;;;;;;;6.53;1.63;;;25.30;68.80;;;;;;5011948;28;20010;-74
2022/06/30 10:04:50;;;;;;;4.97;1.75;;;25.30;68.40;;;;;;5013693;28;20107;-74
2022/06/30 10:07:16;;;;;;;6.75;1.95;;;25.30;68.50;;;;;;5014260;28;20034;-74
2022/06/30 10:09:42;;;;;;;5.35;1.52;;;25.20;68.50;;;;;;5013890;28;20076;-73
2022/06/30 10:12:08;;;;;;;4.90;1.60;;;25.30;68.50;;;;;;5013222;28;20179;-74
2022/06/30 10:14:35;;;;;;;5.25;1.35;;;25.30;68.30;;;;;;5013353;28;20026;-72
2022/06/30 10:17:02;;;;;;;5.90;1.55;;;25.30;68.30;;;;;;5009418;28;20506;-74
2022/06/30 10:19:29;;;;;;;4.07;0.93;;;25.40;68.20;;;;;;5010506;28;20041;-73
2022/06/30 10:21:55;;;;;;;4.32;1.00;;;25.40;68.00;;;;;;5011162;28;20113;-74
2022/06/30 10:24:21;;;;;;;4.53;0.90;;;25.30;69.20;;;;;;5012700;28;20036;-75
2022/06/30 10:29:32;;;;;;;3.65;0.90;;;25.30;69.30;;;;;;5005649;28;20088;-74
2022/06/30 10:32:07;;;;;;;4.82;1.08;;;25.30;69.30;;;;;;5003316;28;20034;-74
2022/06/30 10:34:43;;;;;;;5.95;1.02;;;25.30;69.50;;;;;;5007920;28;20062;-73
2022/06/30 10:37:32;;;;;;;3.50;0.90;;;25.20;69.40;;;;;;5011267;28;20033;-73
2022/06/30 10:40:46;;;;;;;2.55;0.90;;;25.30;69.10;;;;;;4993534;28;20109;-74
2022/06/30 10:43:14;;;;;;;1.92;0.55;;;25.20;69.50;;;;;;4998554;28;20046;-74
2022/06/30 10:45:56;;;;;;;5.68;0.88;;;25.20;69.80;;;;;;4990633;28;20034;-74
2022/06/30 10:48:23;;;;;;;2.00;0.60;;;25.20;69.80;;;;;;5010048;28;20029;-73
2022/06/30 10:50:50;;;;;;;2.60;0.88;;;25.20;69.50;;;;;;5009837;28;20471;-73
2022/06/30 10:53:41;;;;;;;2.67;0.82;;;25.20;71.10;;;;;;5007252;28;20030;-73
2022/06/30 10:56:08;;;;;;;3.40;1.10;;;25.20;71.60;;;;;;5011169;28;20030;-73
2022/06/30 10:58:34;;;;;;;3.00;0.90;;;25.10;70.60;;;;;;5011345;28;20281;-73
2022/06/30 11:01:11;;;;;;;3.05;0.70;;;25.10;70.30;;;;;;5011231;28;20028;-73
2022/06/30 11:03:37;;;;;;;3.63;0.85;;;25.20;70.10;;;;;;5009715;28;20058;-72
2022/06/30 11:06:05;;;;;;;3.20;1.23;;;25.20;70.50;;;;;;5011841;28;20037;-73
2022/06/30 11:08:46;;;;;;;3.10;0.98;;;25.20;70.10;;;;;;5010961;28;20112;-73
2022/06/30 11:11:36;;;;;;;3.28;1.08;;;25.10;69.70;;;;;;5012844;28;20046;-73
2022/06/30 11:14:01;;;;;;;4.82;0.80;;;25.30;69.60;;;;;;5004760;28;20506;-72
2022/06/30 11:16:28;;;;;;;2.05;0.80;;;25.30;69.40;;;;;;5010338;28;20030;-73
2022/06/30 11:18:54;;;;;;;4.05;1.02;;;25.30;69.00;;;;;;5011929;28;20034;-73
2022/06/30 11:21:20;;;;;;;5.72;1.42;;;25.30;70.90;;;;;;5011496;28;20026;-73
2022/06/30 11:23:47;;;;;;;5.22;2.10;;;25.20;72.10;;;;;;5012504;28;20101;-73
2022/06/30 11:29:00;;;;;;;7.85;1.40;;;25.20;72.10;;;;;;5013150;28;20041;-72
2022/06/30 11:31:34;;;;;;;6.43;1.50;;;25.20;71.90;;;;;;5003899;28;20030;-73
2022/06/30 11:34:06;;;;;;;4.05;1.20;;;25.20;71.80;;;;;;5015666;28;20033;-72
2022/06/30 11:36:33;;;;;;;;;;;25.10;71.70;;;;;;5007960;28;20105;-72
2022/06/30 11:39:09;;;;;;;5.18;1.20;;;25.20;70.90;;;;;;4990579;28;19914;-73
2022/06/30 11:41:54;;;;;;;5.63;1.70;;;25.10;70.80;;;;;;5008847;28;20032;-73
2022/06/30 11:44:24;;;;;;;4.35;1.20;;;25.10;70.60;;;;;;5006949;28;20038;-73
2022/06/30 11:46:59;;;;;;;4.47;1.25;;;25.10;70.30;;;;;;5011979;28;20030;-72
2022/06/30 11:49:38;;;;;;;4.07;1.20;;;25.10;70.20;;;;;;5008282;28;20095;-72
2022/06/30 11:52:16;;;;;;;6.88;1.50;;;25.10;70.00;;;;;;5015794;28;20025;-72
2022/06/30 11:54:58;;;;;;;5.13;1.10;;;25.10;70.20;;;;;;5013814;28;20384;-73
2022/06/30 11:57:45;;;;;;;4.82;1.17;;;25.10;70.00;;;;;;5009420;28;20120;-72
2022/06/30 12:00:12;;;;;;;3.10;1.33;;;25.00;70.00;;;;;;5007033;28;20026;-72
2022/06/30 12:02:40;;;;;;;5.00;1.30;;;25.00;70.00;;;;;;5013061;28;20032;-72
2022/06/30 12:05:10;;;;;;;3.60;1.20;;;25.00;70.20;;;;;;5012311;28;20544;-72
2022/06/30 12:07:37;;;;;;;4.18;1.20;;;25.00;70.20;;;;;;5014165;28;20109;-71
2022/06/30 12:10:05;;;;;;;5.03;1.40;;;24.90;70.50;;;;;;5012569;28;20112;-70
2022/06/30 12:12:32;;;;;;;8.38;2.00;;;24.90;70.90;;;;;;5013983;28;20049;-71
2022/06/30 12:15:03;;;;;;;4.35;1.55;;;24.90;71.00;;;;;;5033291;28;20437;-73
2022/06/30 12:17:35;;;;;;;7.47;2.00;;;25.00;71.30;;;;;;5035854;28;20056;-72
2022/06/30 12:20:02;;;;;;;7.60;1.80;;;25.00;71.10;;;;;;5012942;28;20041;-72
2022/06/30 12:22:28;;;;;;;6.38;1.85;;;25.00;70.90;;;;;;5010037;28;20480;-71
2022/06/30 12:24:54;;;;;;;6.72;1.83;;;24.90;71.00;;;;;;5013020;28;20487;-72
2022/06/30 12:27:40;;;;;;;9.38;2.00;;;24.90;71.50;;;;;;4995171;28;20040;-70
2022/06/30 12:30:08;;;;;;;8.88;2.72;;;24.90;72.20;;;;;;5013362;28;20029;-73
2022/06/30 12:32:33;;;;;;;6.50;2.00;;;24.90;72.90;;;;;;5013771;28;20040;-72
2022/06/30 12:35:03;;;;;;;8.13;2.20;;;24.90;72.90;;;;;;5013593;28;20025;-72
2022/06/30 12:37:34;;;;;;;6.80;2.58;;;24.90;72.80;;;;;;5020827;28;20033;-71
2022/06/30 12:40:09;;;;;;;7.13;2.05;;;25.00;74.00;;;;;;5014408;28;20033;-72
2022/06/30 12:43:01;;;;;;;9.43;2.00;;;25.00;72.90;;;;;;5017755;28;20547;-72
2022/06/30 12:46:02;;;;;;;7.28;3.10;;;25.00;73.00;;;;;;5022388;28;20115;-72
2022/06/30 12:48:56;;;;;;;9.10;3.85;;;25.00;72.90;;;;;;5019069;28;20104;-72
2022/06/30 12:51:30;;;;;;;6.30;2.80;;;25.00;73.70;;;;;;5015185;28;20054;-72
2022/06/30 12:54:05;;;;;;;7.03;2.83;;;25.00;73.10;;;;;;5026763;28;20029;-73
2022/06/30 12:56:31;;;;;;;6.75;2.13;;;25.00;72.40;;;;;;5015538;28;20056;-72
2022/06/30 12:59:04;;;;;;;9.07;2.38;;;24.90;72.00;;;;;;5013524;28;20030;-72
2022/06/30 13:01:30;;;;;;;5.63;2.10;;;25.00;71.90;;;;;;5010658;28;20368;-72
2022/06/30 13:04:16;;;;;;;5.60;1.88;;;24.90;71.80;;;;;;5014259;28;20426;-72
2022/06/30 13:06:44;;;;;;;3.30;1.52;;;25.00;71.80;;;;;;5014587;28;20030;-72